createdAt,value
2023-04-19T00:02:01.526Z,53.23
2023-04-19T00:04:28.301Z,53.91
2023-04-19T00:06:54.878Z,54.35
2023-04-19T00:09:21.371Z,54.17
2023-04-19T00:11:47.888Z,54.29
2023-04-19T00:14:14.783Z,54.49
2023-04-19T00:16:42.116Z,54.41
2023-04-19T00:19:09.119Z,54.53
2023-04-19T00:21:35.624Z,54.68
2023-04-19T00:24:03.251Z,54.91
2023-04-19T00:26:29.804Z,54.63
2023-04-19T00:28:56.326Z,54.69
2023-04-19T00:31:22.931Z,54.59
2023-04-19T00:33:49.474Z,54.84
2023-04-19T00:36:15.932Z,54.57
2023-04-19T00:38:42.376Z,54.35
2023-04-19T00:41:08.894Z,54.47
2023-04-19T00:43:35.407Z,54.63
2023-04-19T00:46:02.507Z,55.23
2023-04-19T00:48:30.802Z,54.95
2023-04-19T00:50:57.566Z,55.31
2023-04-19T00:53:24.110Z,55.64
2023-04-19T00:55:51.403Z,55.59
2023-04-19T00:58:18.072Z,55.81
2023-04-19T01:00:44.768Z,56.45
2023-04-19T01:03:11.454Z,56.07
2023-04-19T01:05:38.206Z,55.90
2023-04-19T01:08:04.812Z,56.46
2023-04-19T01:10:31.390Z,56.07
2023-04-19T01:12:57.918Z,56.30
2023-04-19T01:15:24.456Z,56.17
2023-04-19T01:17:51.128Z,56.89
2023-04-19T01:20:17.912Z,56.86
2023-04-19T01:22:44.345Z,56.89
2023-04-19T01:25:11.421Z,56.47
2023-04-19T01:27:37.921Z,56.60
2023-04-19T01:30:05.045Z,56.60
2023-04-19T01:32:32.113Z,56.09
2023-04-19T01:34:58.690Z,55.88
2023-04-19T01:37:25.315Z,56.15
2023-04-19T01:39:51.868Z,56.73
2023-04-19T01:42:18.447Z,56.70
2023-04-19T01:44:44.913Z,56.75
2023-04-19T01:47:11.514Z,57.33
2023-04-19T01:49:38.012Z,56.84
2023-04-19T01:52:04.549Z,57.13
2023-04-19T01:54:31.544Z,57.01
2023-04-19T01:56:58.414Z,56.63
2023-04-19T01:59:24.881Z,56.72
2023-04-19T02:01:51.474Z,57.35
2023-04-19T02:04:21.887Z,57.43
2023-04-19T02:06:48.424Z,56.56
2023-04-19T02:09:14.938Z,57.87
2023-04-19T02:11:41.496Z,58.17
2023-04-19T02:14:07.969Z,57.84
2023-04-19T02:16:36.107Z,57.40
2023-04-19T02:19:04.273Z,57.93
2023-04-19T02:21:31.855Z,57.31
2023-04-19T02:23:58.457Z,57.62
2023-04-19T02:26:25.072Z,58.07
2023-04-19T02:28:52.884Z,57.65
2023-04-19T02:31:19.689Z,58.27
2023-04-19T02:33:46.791Z,58.12
2023-04-19T02:36:13.373Z,58.21
2023-04-19T02:38:39.904Z,57.83
2023-04-19T02:41:06.330Z,57.75
2023-04-19T02:43:32.802Z,57.51
2023-04-19T02:45:59.390Z,57.78
2023-04-19T02:48:26.124Z,57.81
2023-04-19T02:50:52.684Z,57.96
2023-04-19T02:53:19.137Z,57.70
2023-04-19T02:55:45.652Z,57.55
2023-04-19T02:58:12.160Z,57.85
2023-04-19T03:00:38.807Z,57.62
2023-04-19T03:03:05.569Z,58.14
2023-04-19T03:05:32.240Z,58.14
2023-04-19T03:07:58.958Z,58.08
2023-04-19T03:10:26.109Z,57.91
2023-04-19T03:12:52.574Z,57.51
2023-04-19T03:15:19.760Z,57.79
2023-04-19T03:17:46.415Z,57.60
2023-04-19T03:20:13.131Z,57.91
2023-04-19T03:22:39.722Z,57.75
2023-04-19T03:25:06.954Z,57.98
2023-04-19T03:27:36.575Z,58.07
2023-04-19T03:30:03.400Z,58.00
2023-04-19T03:32:30.970Z,58.15
2023-04-19T03:34:57.476Z,56.94
2023-04-19T03:37:23.960Z,57.09
2023-04-19T03:39:50.504Z,56.91
2023-04-19T03:42:17.076Z,56.89
2023-04-19T03:44:43.524Z,57.23
2023-04-19T03:47:10.036Z,57.53
2023-04-19T03:49:36.469Z,57.18
2023-04-19T03:52:02.967Z,58.04
2023-04-19T03:54:29.421Z,57.70
2023-04-19T03:56:57.016Z,58.35
2023-04-19T03:59:23.490Z,58.21
2023-04-19T04:01:50.178Z,58.15
2023-04-19T04:04:17.033Z,58.24
2023-04-19T04:06:44.488Z,58.52
2023-04-19T04:09:10.973Z,58.65
2023-04-19T04:11:37.593Z,58.08
2023-04-19T04:14:04.719Z,57.94
2023-04-19T04:16:31.241Z,57.40
2023-04-19T04:18:57.866Z,57.67
2023-04-19T04:21:24.735Z,57.99
2023-04-19T04:23:51.473Z,58.36
2023-04-19T04:26:20.260Z,58.30
2023-04-19T04:28:47.090Z,58.65
2023-04-19T04:31:13.593Z,58.39
2023-04-19T04:33:41.503Z,58.40
2023-04-19T04:36:09.784Z,58.19
2023-04-19T04:38:36.795Z,57.21
2023-04-19T04:41:03.308Z,57.54
2023-04-19T04:43:30.217Z,57.83
2023-04-19T04:45:58.138Z,57.34
2023-04-19T04:48:25.375Z,56.92
2023-04-19T04:50:51.895Z,57.56
2023-04-19T04:53:18.493Z,56.77
2023-04-19T04:55:45.095Z,57.18
2023-04-19T04:58:11.585Z,56.87
2023-04-19T05:00:38.110Z,58.00
2023-04-19T05:03:04.844Z,58.50
2023-04-19T05:05:31.472Z,58.11
2023-04-19T05:07:57.972Z,57.17
2023-04-19T05:10:24.597Z,57.10
2023-04-19T05:12:51.086Z,56.30
2023-04-19T05:15:17.588Z,56.13
2023-04-19T05:17:44.134Z,55.63
2023-04-19T05:20:11.014Z,55.46
2023-04-19T05:22:37.966Z,54.65
2023-04-19T05:25:05.839Z,54.83
2023-04-19T05:27:32.434Z,54.54
2023-04-19T05:29:58.976Z,54.32
2023-04-19T05:32:26.089Z,54.54
2023-04-19T05:34:52.624Z,54.18
2023-04-19T05:37:19.103Z,55.00
2023-04-19T05:39:45.565Z,55.22
2023-04-19T05:42:12.058Z,55.26
2023-04-19T05:44:38.526Z,54.39
2023-04-19T05:47:05.311Z,55.04
2023-04-19T05:49:31.791Z,54.54
2023-04-19T05:51:58.326Z,54.88
2023-04-19T05:54:24.822Z,53.15
2023-04-19T05:56:51.352Z,53.85
2023-04-19T05:59:17.862Z,53.77
2023-04-19T06:01:44.468Z,53.78
2023-04-19T06:04:11.345Z,54.11
2023-04-19T06:06:38.231Z,54.57
2023-04-19T06:09:04.825Z,54.42
2023-04-19T06:11:38.833Z,54.03
2023-04-19T06:14:14.639Z,54.74
2023-04-19T06:16:42.149Z,54.89
2023-04-19T06:19:08.850Z,54.96
2023-04-19T06:21:35.468Z,55.69
2023-04-19T06:24:02.060Z,55.47
2023-04-19T06:26:28.634Z,54.82
2023-04-19T06:28:55.222Z,54.86
2023-04-19T06:31:21.860Z,55.10
2023-04-19T06:33:48.399Z,55.00
2023-04-19T06:36:15.018Z,54.99
2023-04-19T06:38:41.774Z,55.07
2023-04-19T06:41:09.184Z,55.34
2023-04-19T06:43:35.820Z,54.90
2023-04-19T06:46:04.835Z,54.60
2023-04-19T06:48:31.586Z,54.54
2023-04-19T06:50:58.161Z,54.44
2023-04-19T06:53:24.892Z,54.05
2023-04-19T06:56:04.288Z,52.99
2023-04-19T06:58:35.474Z,50.25
2023-04-19T07:01:04.629Z,51.40
2023-04-19T07:03:31.958Z,51.68
2023-04-19T07:05:58.591Z,51.55
2023-04-19T07:08:35.085Z,50.49
2023-04-19T07:11:05.595Z,48.71
2023-04-19T07:13:32.072Z,50.83
2023-04-19T07:15:58.529Z,51.87
2023-04-19T07:18:25.195Z,51.77
2023-04-19T07:20:51.752Z,52.05
2023-04-19T07:23:19.312Z,52.22
2023-04-19T07:25:46.358Z,52.77
2023-04-19T07:28:12.852Z,52.72
2023-04-19T07:30:39.348Z,52.51
2023-04-19T07:33:08.332Z,52.72
2023-04-19T07:35:35.698Z,52.92
2023-04-19T07:38:02.343Z,52.66
2023-04-19T07:40:28.871Z,52.82
2023-04-19T07:42:56.622Z,52.47
2023-04-19T07:45:23.503Z,51.45
2023-04-19T07:47:50.494Z,51.25
2023-04-19T07:50:17.543Z,50.63
2023-04-19T07:52:44.286Z,46.09
2023-04-19T07:55:10.860Z,49.05
2023-04-19T07:57:37.532Z,49.53
2023-04-19T08:00:04.842Z,49.86
2023-04-19T08:02:31.465Z,49.89
2023-04-19T08:04:58.271Z,49.13
2023-04-19T08:07:26.091Z,49.23
2023-04-19T08:09:52.828Z,48.77
2023-04-19T08:12:32.891Z,47.80
2023-04-19T08:15:07.881Z,47.23
2023-04-19T08:17:47.145Z,47.31
2023-04-19T08:20:14.457Z,47.17
2023-04-19T08:22:41.136Z,47.28
2023-04-19T08:25:08.506Z,47.25
2023-04-19T08:27:35.754Z,47.27
2023-04-19T08:30:03.367Z,47.01
2023-04-19T08:32:29.953Z,47.27
2023-04-19T08:34:57.236Z,46.77
2023-04-19T08:37:23.782Z,45.95
2023-04-19T08:39:50.463Z,45.42
2023-04-19T08:42:28.727Z,45.43
2023-04-19T08:45:26.858Z,45.59
2023-04-19T08:48:01.225Z,44.68
2023-04-19T08:53:12.283Z,44.95
2023-04-19T08:56:06.844Z,45.16
2023-04-19T09:01:07.072Z,44.56
2023-04-19T09:03:44.067Z,44.70
2023-04-19T09:06:18.076Z,44.27
2023-04-19T09:08:44.683Z,42.80
2023-04-19T09:11:11.278Z,42.72
2023-04-19T09:13:38.729Z,43.18
2023-04-19T09:16:07.779Z,43.89
2023-04-19T09:19:02.721Z,43.68
2023-04-19T09:21:35.965Z,43.50
2023-04-19T09:24:03.775Z,43.27
2023-04-19T09:26:30.684Z,43.13
2023-04-19T09:29:07.867Z,43.18
2023-04-19T09:31:51.098Z,41.83
2023-04-19T09:34:19.784Z,40.76
2023-04-19T09:36:46.930Z,40.16
2023-04-19T09:39:14.652Z,38.97
2023-04-19T09:41:54.820Z,38.84
2023-04-19T09:44:52.896Z,40.55
2023-04-19T09:47:30.110Z,39.15
2023-04-19T09:50:22.894Z,40.60
2023-04-19T09:52:52.914Z,40.48
2023-04-19T09:55:26.961Z,39.97
2023-04-19T09:57:55.005Z,40.49
2023-04-19T10:00:22.992Z,39.82
2023-04-19T10:02:57.966Z,38.58
2023-04-19T10:05:25.629Z,39.42
2023-04-19T10:07:56.519Z,39.53
2023-04-19T10:13:19.021Z,39.25
2023-04-19T10:15:53.630Z,39.25
2023-04-19T10:18:24.475Z,39.51
2023-04-19T10:20:59.875Z,39.25
2023-04-19T10:23:27.687Z,38.93
2023-04-19T10:25:58.437Z,38.17
2023-04-19T10:28:27.852Z,37.53
2023-04-19T10:31:01.688Z,37.83
2023-04-19T10:33:34.195Z,37.67
2023-04-19T10:36:01.808Z,38.21
2023-04-19T10:38:49.405Z,36.75
2023-04-19T10:41:18.678Z,37.83
2023-04-19T10:44:11.341Z,34.82
2023-04-19T10:46:40.597Z,36.50
2023-04-19T10:49:09.663Z,36.23
2023-04-19T10:51:39.702Z,36.49
2023-04-19T10:54:31.571Z,36.00
2023-04-19T10:57:05.232Z,35.47
2023-04-19T10:59:35.346Z,34.83
2023-04-19T11:02:30.554Z,34.27
2023-04-19T11:04:58.834Z,34.15
2023-04-19T11:07:25.404Z,34.28
2023-04-19T11:09:52.697Z,33.91
2023-04-19T11:12:21.682Z,33.31
2023-04-19T11:14:57.340Z,32.73
2023-04-19T11:17:29.376Z,32.94
2023-04-19T11:20:08.376Z,33.10
2023-04-19T11:22:41.590Z,31.51
2023-04-19T11:25:19.529Z,30.62
2023-04-19T11:27:52.778Z,31.77
2023-04-19T11:30:29.413Z,32.39
2023-04-19T11:32:57.427Z,32.19
2023-04-19T11:35:26.912Z,26.99
2023-04-19T11:37:55.468Z,28.42
2023-04-19T11:40:26.116Z,27.37
2023-04-19T11:43:02.125Z,27.33
2023-04-19T11:45:35.505Z,27.05
2023-04-19T11:48:06.213Z,28.19
2023-04-19T11:50:46.527Z,27.75
2023-04-19T11:53:16.190Z,28.81
2023-04-19T11:55:48.477Z,26.32
2023-04-19T11:58:39.823Z,25.42
2023-04-19T12:01:15.245Z,28.76
2023-04-19T12:03:47.221Z,26.31
2023-04-19T12:06:29.649Z,28.37
2023-04-19T12:08:57.058Z,29.15
2023-04-19T12:11:42.837Z,27.76
2023-04-19T12:14:09.931Z,25.00
2023-04-19T12:16:36.533Z,24.60
2023-04-19T12:19:15.287Z,25.22
2023-04-19T12:21:42.066Z,26.46
2023-04-19T12:24:08.705Z,26.57
2023-04-19T12:26:36.270Z,25.63
2023-04-19T12:29:03.627Z,25.66
2023-04-19T12:31:33.442Z,25.70
2023-04-19T12:34:00.019Z,25.63
2023-04-19T12:36:26.698Z,25.77
2023-04-19T12:38:53.192Z,25.37
2023-04-19T12:41:19.826Z,25.85
2023-04-19T12:43:46.357Z,26.35
2023-04-19T12:46:12.972Z,25.97
2023-04-19T12:48:39.738Z,25.75
2023-04-19T12:51:06.349Z,25.80
2023-04-19T12:53:33.173Z,26.24
2023-04-19T12:55:59.940Z,26.31
2023-04-19T12:58:27.997Z,25.11
2023-04-19T13:00:54.562Z,26.83
2023-04-19T13:03:21.450Z,27.13
2023-04-19T13:05:49.010Z,26.75
2023-04-19T13:08:15.787Z,26.56
2023-04-19T13:10:42.251Z,26.81
2023-04-19T13:13:08.769Z,25.32
2023-04-19T13:15:35.358Z,22.44
2023-04-19T13:18:01.963Z,24.04
2023-04-19T13:20:29.115Z,24.82
2023-04-19T13:22:55.636Z,25.25
2023-04-19T13:25:22.287Z,25.79
2023-04-19T13:27:48.739Z,26.35
2023-04-19T13:30:15.740Z,26.59
2023-04-19T13:32:42.265Z,26.71
2023-04-19T13:35:09.434Z,27.15
2023-04-19T13:37:35.967Z,25.97
2023-04-19T13:40:17.517Z,27.03
2023-04-19T13:42:45.579Z,26.26
2023-04-19T13:45:12.400Z,25.09
2023-04-19T13:47:38.934Z,26.61
2023-04-19T13:50:06.221Z,27.42
2023-04-19T13:52:33.190Z,24.45
2023-04-19T13:54:59.791Z,24.55
2023-04-19T13:57:26.292Z,25.25
2023-04-19T13:59:52.828Z,24.13
2023-04-19T14:02:19.485Z,23.41
2023-04-19T14:04:46.286Z,22.62
2023-04-19T14:07:12.925Z,22.58
2023-04-19T14:09:39.468Z,23.65
2023-04-19T14:12:08.676Z,24.21
2023-04-19T14:14:35.291Z,24.11
2023-04-19T14:17:01.926Z,24.99
2023-04-19T14:19:28.502Z,25.65
2023-04-19T14:21:55.620Z,25.63
2023-04-19T14:24:22.127Z,24.81
2023-04-19T14:26:54.475Z,25.41
2023-04-19T14:29:33.826Z,24.92
2023-04-19T14:32:07.507Z,25.77
2023-04-19T14:34:43.389Z,26.37
2023-04-19T14:37:09.916Z,25.72
2023-04-19T14:39:36.408Z,26.12
2023-04-19T14:42:03.295Z,25.22
2023-04-19T14:44:29.779Z,24.73
2023-04-19T14:46:56.321Z,26.03
2023-04-19T14:49:22.817Z,26.36
2023-04-19T14:51:49.300Z,26.39
2023-04-19T14:54:16.055Z,25.41
2023-04-19T14:56:42.532Z,25.66
2023-04-19T14:59:09.105Z,24.10
2023-04-19T15:01:35.714Z,25.14
2023-04-19T15:04:02.431Z,24.22
2023-04-19T15:06:29.516Z,25.60
2023-04-19T15:08:56.094Z,26.18
2023-04-19T15:11:22.980Z,23.89
2023-04-19T15:13:49.721Z,25.08
2023-04-19T15:16:16.221Z,25.56
2023-04-19T15:18:42.753Z,26.02
2023-04-19T15:21:09.382Z,25.16
2023-04-19T15:23:35.906Z,24.29
2023-04-19T15:26:02.419Z,25.54
2023-04-19T15:28:28.885Z,25.80
2023-04-19T15:31:01.512Z,26.58
2023-04-19T15:33:28.503Z,25.83
2023-04-19T15:35:56.550Z,22.85
2023-04-19T15:38:28.680Z,23.92
2023-04-19T15:40:57.678Z,23.91
2023-04-19T15:43:25.220Z,23.94
2023-04-19T15:45:52.279Z,23.23
2023-04-19T15:48:20.517Z,22.50
2023-04-19T15:50:47.260Z,21.70
2023-04-19T15:53:13.999Z,21.44
2023-04-19T15:55:41.456Z,22.19
2023-04-19T15:58:08.188Z,22.96
2023-04-19T16:00:34.731Z,24.08
2023-04-19T16:03:01.507Z,23.75
2023-04-19T16:05:28.406Z,24.50
2023-04-19T16:08:07.214Z,23.85
2023-04-19T16:10:34.293Z,24.46
2023-04-19T16:13:01.398Z,24.36
2023-04-19T16:15:28.594Z,24.33
2023-04-19T16:17:55.433Z,25.06
2023-04-19T16:20:22.157Z,25.10
2023-04-19T16:22:49.026Z,24.99
2023-04-19T16:25:17.023Z,25.44
2023-04-19T16:27:46.295Z,25.39
2023-04-19T16:30:15.039Z,24.76
2023-04-19T16:32:42.465Z,23.58
2023-04-19T16:35:09.745Z,24.30
2023-04-19T16:37:36.519Z,24.64
2023-04-19T16:40:10.540Z,25.03
2023-04-19T16:42:38.692Z,25.39
2023-04-19T16:45:07.383Z,25.48
2023-04-19T16:47:36.058Z,25.31
2023-04-19T16:50:04.715Z,23.44
2023-04-19T16:52:36.884Z,24.24
2023-04-19T16:55:04.299Z,24.83
2023-04-19T16:57:31.852Z,25.29
2023-04-19T16:59:58.654Z,24.98
2023-04-19T17:02:25.608Z,24.75
2023-04-19T17:04:52.662Z,25.13
2023-04-19T17:07:19.294Z,25.11
2023-04-19T17:09:46.741Z,25.10
2023-04-19T17:12:13.257Z,25.02
2023-04-19T17:14:40.046Z,25.31
2023-04-19T17:17:06.559Z,25.00
2023-04-19T17:19:33.057Z,23.60
2023-04-19T17:22:04.982Z,24.49
2023-04-19T17:24:32.986Z,24.60
2023-04-19T17:27:00.315Z,24.41
2023-04-19T17:29:27.434Z,24.69
2023-04-19T17:31:54.184Z,24.81
2023-04-19T17:34:20.764Z,25.04
2023-04-19T17:36:47.213Z,25.04
2023-04-19T17:39:13.883Z,25.08
2023-04-19T17:41:41.354Z,25.39
2023-04-19T17:44:07.791Z,25.78
2023-04-19T17:46:34.396Z,25.93
2023-04-19T17:49:01.267Z,26.16
2023-04-19T17:51:27.770Z,26.01
2023-04-19T17:53:54.247Z,26.17
2023-04-19T17:56:21.219Z,26.23
2023-04-19T17:58:47.772Z,25.21
2023-04-19T18:01:16.146Z,26.25
2023-04-19T18:03:42.962Z,26.66
2023-04-19T18:06:10.576Z,26.37
2023-04-19T18:08:37.178Z,26.89
2023-04-19T18:11:03.696Z,26.97
2023-04-19T18:13:30.235Z,27.40
2023-04-19T18:15:56.798Z,27.85
2023-04-19T18:18:23.349Z,28.32
2023-04-19T18:20:50.337Z,28.28
2023-04-19T18:23:16.817Z,28.38
2023-04-19T18:25:43.260Z,28.76
2023-04-19T18:28:09.787Z,29.19
2023-04-19T18:30:36.559Z,29.21
2023-04-19T18:33:03.093Z,28.91
2023-04-19T18:35:30.087Z,29.73
2023-04-19T18:37:56.799Z,29.72
2023-04-19T18:40:23.259Z,29.98
2023-04-19T18:42:49.718Z,30.01
2023-04-19T18:45:16.451Z,30.00
2023-04-19T18:47:42.981Z,30.31
2023-04-19T18:50:09.930Z,29.89
2023-04-19T18:52:37.345Z,30.28
2023-04-19T18:55:06.193Z,30.53
2023-04-19T18:57:35.042Z,30.94
2023-04-19T19:00:05.185Z,30.92
2023-04-19T19:02:34.098Z,31.00
2023-04-19T19:05:02.255Z,30.99
2023-04-19T19:10:03.594Z,31.70
2023-04-19T19:12:36.081Z,31.71
2023-04-19T19:15:02.693Z,32.07
2023-04-19T19:17:29.192Z,32.24
2023-04-19T19:19:55.654Z,32.11
2023-04-19T19:22:27.659Z,32.46
2023-04-19T19:24:57.387Z,32.58
2023-04-19T19:27:24.312Z,32.90
2023-04-19T19:29:50.787Z,33.22
2023-04-19T19:32:17.416Z,33.48
2023-04-19T19:34:54.473Z,33.28
2023-04-19T19:37:21.857Z,33.76
2023-04-19T19:39:48.429Z,33.73
2023-04-19T19:42:19.636Z,33.65
2023-04-19T19:44:46.386Z,33.78
2023-04-19T19:47:13.444Z,34.03
2023-04-19T19:50:00.492Z,33.90
2023-04-19T19:52:31.751Z,34.48
2023-04-19T19:54:59.761Z,34.24
2023-04-19T19:58:01.432Z,34.83
2023-04-19T20:00:36.862Z,35.09
2023-04-19T20:03:01.400Z,35.98
2023-04-19T20:05:28.694Z,35.97
2023-04-19T20:08:11.963Z,37.08
2023-04-19T20:10:41.308Z,36.76
2023-04-19T20:13:12.854Z,36.83
2023-04-19T20:15:40.385Z,37.22
2023-04-19T20:18:08.107Z,37.51
2023-04-19T20:20:35.965Z,38.26
2023-04-19T20:23:02.585Z,38.00
2023-04-19T20:25:31.180Z,38.11
2023-04-19T20:27:58.897Z,38.53
2023-04-19T20:30:25.700Z,38.22
2023-04-19T20:32:52.217Z,38.35
2023-04-19T20:35:19.184Z,38.44
2023-04-19T20:37:49.388Z,37.62
2023-04-19T20:40:16.499Z,38.33
2023-04-19T20:42:44.647Z,38.56
2023-04-19T20:45:11.710Z,38.78
2023-04-19T20:47:38.828Z,39.18
2023-04-19T20:50:09.322Z,38.93
2023-04-19T20:52:35.976Z,38.81
2023-04-19T20:55:02.658Z,39.16
2023-04-19T20:57:29.140Z,39.62
2023-04-19T20:59:55.695Z,39.83
2023-04-19T21:02:22.397Z,39.88
2023-04-19T21:04:49.049Z,40.54
2023-04-19T21:07:15.806Z,39.95
2023-04-19T21:09:42.313Z,40.39
2023-04-19T21:12:08.882Z,40.07
2023-04-19T21:14:35.364Z,40.46
2023-04-19T21:17:03.487Z,40.51
2023-04-19T21:19:30.491Z,40.62
2023-04-19T21:21:58.542Z,40.64
2023-04-19T21:24:25.045Z,40.96
2023-04-19T21:26:51.507Z,41.25
2023-04-19T21:29:18.173Z,41.96
2023-04-19T21:31:44.886Z,42.21
2023-04-19T21:34:11.451Z,42.40
2023-04-19T21:36:38.001Z,42.16
2023-04-19T21:39:04.707Z,41.80
2023-04-19T21:41:31.424Z,41.97
2023-04-19T21:43:57.855Z,42.08
2023-04-19T21:46:24.324Z,42.53
2023-04-19T21:48:51.178Z,42.90
2023-04-19T21:51:18.246Z,43.29
2023-04-19T21:53:44.819Z,43.79
2023-04-19T21:56:11.782Z,44.08
2023-04-19T21:58:38.325Z,44.01
2023-04-19T22:01:05.102Z,44.18
2023-04-19T22:03:31.790Z,44.67
2023-04-19T22:06:01.773Z,44.28
2023-04-19T22:08:30.858Z,44.05
2023-04-19T22:11:00.235Z,44.07
2023-04-19T22:13:28.245Z,43.86
2023-04-19T22:15:56.974Z,44.43
2023-04-19T22:18:23.811Z,44.58
2023-04-19T22:20:51.911Z,44.19
2023-04-19T22:23:18.510Z,44.13
2023-04-19T22:25:45.363Z,44.60
2023-04-19T22:28:11.837Z,44.72
2023-04-19T22:30:38.308Z,44.84
2023-04-19T22:33:05.130Z,45.86
2023-04-19T22:35:31.707Z,45.28
2023-04-19T22:37:58.209Z,45.07
2023-04-19T22:40:24.886Z,45.18
2023-04-19T22:42:51.395Z,45.27
2023-04-19T22:45:18.037Z,45.31
2023-04-19T22:47:45.188Z,45.66
2023-04-19T22:50:11.724Z,45.96
2023-04-19T22:52:38.313Z,46.14
2023-04-19T22:55:05.556Z,46.18
2023-04-19T22:57:32.070Z,46.67
2023-04-19T22:59:58.547Z,46.52
2023-04-19T23:02:25.173Z,46.09
2023-04-19T23:04:52.061Z,46.54
2023-04-19T23:07:19.857Z,46.36
2023-04-19T23:09:47.059Z,46.37
2023-04-19T23:12:15.584Z,46.50
2023-04-19T23:14:42.340Z,46.34
2023-04-19T23:17:08.892Z,46.37
2023-04-19T23:19:36.746Z,46.31
2023-04-19T23:22:03.359Z,46.69
2023-04-19T23:24:29.850Z,46.87
2023-04-19T23:26:56.608Z,46.84
2023-04-19T23:29:23.148Z,47.10
2023-04-19T23:31:49.694Z,47.95
2023-04-19T23:34:16.562Z,47.93
2023-04-19T23:36:43.284Z,47.93
2023-04-19T23:39:09.778Z,47.61
2023-04-19T23:41:36.261Z,46.96
2023-04-19T23:44:02.703Z,47.10
2023-04-19T23:46:29.249Z,47.61
2023-04-19T23:48:55.841Z,47.84
2023-04-19T23:51:22.388Z,48.32
2023-04-19T23:53:48.891Z,48.06
2023-04-19T23:56:15.636Z,47.81
2023-04-19T23:58:42.133Z,47.44
